sensor_id;sensor_type;location;lat;lon;timestamp;P1;durP1;ratioP1;P2;durP2;ratioP2
10150;SDS011;5116;52.318;4.644;2023-06-14T00:01:04;1.67;;;1.57;;
10150;SDS011;5116;52.318;4.644;2023-06-14T00:03:33;1.97;;;1.77;;
10150;SDS011;5116;52.318;4.644;2023-06-14T00:06:00;1.87;;;1.63;;
10150;SDS011;5116;52.318;4.644;2023-06-14T00:08:28;1.97;;;1.50;;
10150;SDS011;5116;52.318;4.644;2023-06-14T00:10:55;1.80;;;1.70;;
10150;SDS011;5116;52.318;4.644;2023-06-14T00:13:23;2.50;;;1.70;;
10150;SDS011;5116;52.318;4.644;2023-06-14T00:15:51;1.90;;;1.60;;
10150;SDS011;5116;52.318;4.644;2023-06-14T00:18:21;3.27;;;1.73;;
10150;SDS011;5116;52.318;4.644;2023-06-14T00:20:53;1.50;;;1.40;;
10150;SDS011;5116;52.318;4.644;2023-06-14T00:23:20;2.03;;;1.77;;
10150;SDS011;5116;52.318;4.644;2023-06-14T00:25:48;3.93;;;1.90;;
10150;SDS011;5116;52.318;4.644;2023-06-14T00:28:15;1.70;;;1.60;;
10150;SDS011;5116;52.318;4.644;2023-06-14T00:30:43;1.97;;;1.83;;
10150;SDS011;5116;52.318;4.644;2023-06-14T00:33:13;2.27;;;1.70;;
10150;SDS011;5116;52.318;4.644;2023-06-14T00:35:42;2.90;;;1.57;;
10150;SDS011;5116;52.318;4.644;2023-06-14T00:38:10;3.03;;;1.70;;
10150;SDS011;5116;52.318;4.644;2023-06-14T00:40:39;1.90;;;1.70;;
10150;SDS011;5116;52.318;4.644;2023-06-14T00:43:07;3.73;;;1.90;;
10150;SDS011;5116;52.318;4.644;2023-06-14T00:45:35;1.73;;;1.63;;
10150;SDS011;5116;52.318;4.644;2023-06-14T00:48:03;2.70;;;1.90;;
10150;SDS011;5116;52.318;4.644;2023-06-14T00:50:32;2.43;;;1.60;;
10150;SDS011;5116;52.318;4.644;2023-06-14T00:53:00;2.03;;;1.83;;
10150;SDS011;5116;52.318;4.644;2023-06-14T00:55:28;2.03;;;1.83;;
10150;SDS011;5116;52.318;4.644;2023-06-14T00:57:56;1.77;;;1.60;;
10150;SDS011;5116;52.318;4.644;2023-06-14T01:00:23;2.00;;;1.70;;
10150;SDS011;5116;52.318;4.644;2023-06-14T01:02:54;2.53;;;1.83;;
10150;SDS011;5116;52.318;4.644;2023-06-14T01:05:21;1.47;;;1.37;;
10150;SDS011;5116;52.318;4.644;2023-06-14T01:07:56;2.00;;;1.73;;
10150;SDS011;5116;52.318;4.644;2023-06-14T01:10:45;1.53;;;1.43;;
10150;SDS011;5116;52.318;4.644;2023-06-14T01:15:48;1.80;;;1.70;;
10150;SDS011;5116;52.318;4.644;2023-06-14T01:18:17;2.23;;;1.63;;
10150;SDS011;5116;52.318;4.644;2023-06-14T01:20:45;1.97;;;1.73;;
10150;SDS011;5116;52.318;4.644;2023-06-14T01:23:16;2.50;;;1.67;;
10150;SDS011;5116;52.318;4.644;2023-06-14T01:25:44;2.07;;;1.70;;
10150;SDS011;5116;52.318;4.644;2023-06-14T01:28:14;1.67;;;1.57;;
10150;SDS011;5116;52.318;4.644;2023-06-14T01:30:44;1.83;;;1.73;;
10150;SDS011;5116;52.318;4.644;2023-06-14T01:33:20;1.90;;;1.70;;
10150;SDS011;5116;52.318;4.644;2023-06-14T01:35:48;3.10;;;1.90;;
10150;SDS011;5116;52.318;4.644;2023-06-14T01:38:20;1.90;;;1.67;;
10150;SDS011;5116;52.318;4.644;2023-06-14T01:40:49;2.30;;;1.73;;
10150;SDS011;5116;52.318;4.644;2023-06-14T01:43:17;1.63;;;1.53;;
10150;SDS011;5116;52.318;4.644;2023-06-14T01:45:45;2.10;;;1.70;;
10150;SDS011;5116;52.318;4.644;2023-06-14T01:48:14;1.90;;;1.80;;
10150;SDS011;5116;52.318;4.644;2023-06-14T01:50:41;3.13;;;1.80;;
10150;SDS011;5116;52.318;4.644;2023-06-14T01:53:09;2.07;;;1.57;;
10150;SDS011;5116;52.318;4.644;2023-06-14T01:55:37;1.70;;;1.50;;
10150;SDS011;5116;52.318;4.644;2023-06-14T01:58:07;2.00;;;1.80;;
10150;SDS011;5116;52.318;4.644;2023-06-14T02:00:34;2.20;;;1.63;;
10150;SDS011;5116;52.318;4.644;2023-06-14T02:03:02;2.00;;;1.57;;
10150;SDS011;5116;52.318;4.644;2023-06-14T02:05:30;1.50;;;1.40;;
10150;SDS011;5116;52.318;4.644;2023-06-14T02:07:58;1.47;;;1.37;;
10150;SDS011;5116;52.318;4.644;2023-06-14T02:10:26;2.47;;;1.87;;
10150;SDS011;5116;52.318;4.644;2023-06-14T02:12:54;1.87;;;1.50;;
10150;SDS011;5116;52.318;4.644;2023-06-14T02:15:21;1.77;;;1.63;;
10150;SDS011;5116;52.318;4.644;2023-06-14T02:17:49;2.10;;;1.50;;
10150;SDS011;5116;52.318;4.644;2023-06-14T02:20:17;1.70;;;1.60;;
10150;SDS011;5116;52.318;4.644;2023-06-14T02:22:45;1.67;;;1.57;;
10150;SDS011;5116;52.318;4.644;2023-06-14T02:25:12;1.77;;;1.60;;
10150;SDS011;5116;52.318;4.644;2023-06-14T02:27:40;1.70;;;1.60;;
10150;SDS011;5116;52.318;4.644;2023-06-14T02:30:09;1.60;;;1.50;;
10150;SDS011;5116;52.318;4.644;2023-06-14T02:32:37;1.53;;;1.43;;
10150;SDS011;5116;52.318;4.644;2023-06-14T02:35:07;1.73;;;1.53;;
10150;SDS011;5116;52.318;4.644;2023-06-14T02:37:34;2.50;;;1.67;;
10150;SDS011;5116;52.318;4.644;2023-06-14T02:40:02;1.60;;;1.50;;
10150;SDS011;5116;52.318;4.644;2023-06-14T02:42:30;1.80;;;1.70;;
10150;SDS011;5116;52.318;4.644;2023-06-14T02:44:58;1.80;;;1.60;;
10150;SDS011;5116;52.318;4.644;2023-06-14T02:47:27;2.77;;;2.03;;
10150;SDS011;5116;52.318;4.644;2023-06-14T02:49:55;4.80;;;1.93;;
10150;SDS011;5116;52.318;4.644;2023-06-14T02:52:22;1.90;;;1.70;;
10150;SDS011;5116;52.318;4.644;2023-06-14T02:54:51;1.70;;;1.60;;
10150;SDS011;5116;52.318;4.644;2023-06-14T02:57:20;1.50;;;1.40;;
10150;SDS011;5116;52.318;4.644;2023-06-14T02:59:48;1.50;;;1.40;;
10150;SDS011;5116;52.318;4.644;2023-06-14T03:02:16;2.07;;;1.73;;
10150;SDS011;5116;52.318;4.644;2023-06-14T03:04:44;1.80;;;1.50;;
10150;SDS011;5116;52.318;4.644;2023-06-14T03:07:15;1.93;;;1.40;;
10150;SDS011;5116;52.318;4.644;2023-06-14T03:09:48;1.60;;;1.50;;
10150;SDS011;5116;52.318;4.644;2023-06-14T03:12:17;1.73;;;1.47;;
10150;SDS011;5116;52.318;4.644;2023-06-14T03:14:45;2.33;;;1.73;;
10150;SDS011;5116;52.318;4.644;2023-06-14T03:17:15;2.43;;;1.50;;
10150;SDS011;5116;52.318;4.644;2023-06-14T03:19:44;2.10;;;1.70;;
10150;SDS011;5116;52.318;4.644;2023-06-14T03:22:14;1.93;;;1.40;;
10150;SDS011;5116;52.318;4.644;2023-06-14T03:24:42;1.93;;;1.73;;
10150;SDS011;5116;52.318;4.644;2023-06-14T03:27:13;1.50;;;1.40;;
10150;SDS011;5116;52.318;4.644;2023-06-14T03:29:44;2.67;;;1.40;;
10150;SDS011;5116;52.318;4.644;2023-06-14T03:32:12;1.50;;;1.40;;
10150;SDS011;5116;52.318;4.644;2023-06-14T03:34:41;1.57;;;1.47;;
10150;SDS011;5116;52.318;4.644;2023-06-14T03:37:17;2.40;;;1.60;;
10150;SDS011;5116;52.318;4.644;2023-06-14T03:39:46;2.27;;;1.97;;
10150;SDS011;5116;52.318;4.644;2023-06-14T03:42:21;2.33;;;1.73;;
10150;SDS011;5116;52.318;4.644;2023-06-14T03:44:49;1.40;;;1.30;;
10150;SDS011;5116;52.318;4.644;2023-06-14T03:47:18;1.70;;;1.60;;
10150;SDS011;5116;52.318;4.644;2023-06-14T03:49:46;2.20;;;1.30;;
10150;SDS011;5116;52.318;4.644;2023-06-14T03:52:14;1.40;;;1.30;;
10150;SDS011;5116;52.318;4.644;2023-06-14T03:54:46;1.53;;;1.43;;
10150;SDS011;5116;52.318;4.644;2023-06-14T03:57:18;1.67;;;1.50;;
10150;SDS011;5116;52.318;4.644;2023-06-14T03:59:48;2.13;;;1.53;;
10150;SDS011;5116;52.318;4.644;2023-06-14T04:02:16;2.43;;;1.77;;
10150;SDS011;5116;52.318;4.644;2023-06-14T04:04:45;1.70;;;1.60;;
10150;SDS011;5116;52.318;4.644;2023-06-14T04:07:13;2.23;;;1.50;;
10150;SDS011;5116;52.318;4.644;2023-06-14T04:09:41;1.57;;;1.47;;
10150;SDS011;5116;52.318;4.644;2023-06-14T04:12:09;1.83;;;1.50;;
10150;SDS011;5116;52.318;4.644;2023-06-14T04:14:39;1.87;;;1.50;;
10150;SDS011;5116;52.318;4.644;2023-06-14T04:17:08;1.40;;;1.30;;
10150;SDS011;5116;52.318;4.644;2023-06-14T04:19:37;2.00;;;1.57;;
10150;SDS011;5116;52.318;4.644;2023-06-14T04:22:05;2.30;;;1.67;;
10150;SDS011;5116;52.318;4.644;2023-06-14T04:24:34;1.60;;;1.50;;
10150;SDS011;5116;52.318;4.644;2023-06-14T04:27:04;1.50;;;1.40;;
10150;SDS011;5116;52.318;4.644;2023-06-14T04:29:32;1.60;;;1.50;;
10150;SDS011;5116;52.318;4.644;2023-06-14T04:32:04;1.70;;;1.50;;
10150;SDS011;5116;52.318;4.644;2023-06-14T04:34:32;1.53;;;1.43;;
10150;SDS011;5116;52.318;4.644;2023-06-14T04:37:01;1.50;;;1.40;;
10150;SDS011;5116;52.318;4.644;2023-06-14T04:39:36;1.70;;;1.60;;
10150;SDS011;5116;52.318;4.644;2023-06-14T04:42:04;1.33;;;1.23;;
10150;SDS011;5116;52.318;4.644;2023-06-14T04:44:34;2.30;;;1.40;;
10150;SDS011;5116;52.318;4.644;2023-06-14T04:47:03;1.50;;;1.40;;
10150;SDS011;5116;52.318;4.644;2023-06-14T04:49:31;1.83;;;1.50;;
10150;SDS011;5116;52.318;4.644;2023-06-14T04:52:00;1.47;;;1.37;;
10150;SDS011;5116;52.318;4.644;2023-06-14T04:54:34;1.50;;;1.40;;
10150;SDS011;5116;52.318;4.644;2023-06-14T04:57:07;1.50;;;1.40;;
10150;SDS011;5116;52.318;4.644;2023-06-14T04:59:35;1.67;;;1.43;;
10150;SDS011;5116;52.318;4.644;2023-06-14T05:02:03;1.77;;;1.37;;
10150;SDS011;5116;52.318;4.644;2023-06-14T05:04:31;1.83;;;1.40;;
10150;SDS011;5116;52.318;4.644;2023-06-14T05:07:00;1.67;;;1.43;;
10150;SDS011;5116;52.318;4.644;2023-06-14T05:09:28;1.60;;;1.50;;
10150;SDS011;5116;52.318;4.644;2023-06-14T05:11:56;1.50;;;1.40;;
10150;SDS011;5116;52.318;4.644;2023-06-14T05:14:25;1.27;;;1.20;;
10150;SDS011;5116;52.318;4.644;2023-06-14T05:16:53;1.53;;;1.43;;
10150;SDS011;5116;52.318;4.644;2023-06-14T05:19:20;1.73;;;1.53;;
10150;SDS011;5116;52.318;4.644;2023-06-14T05:21:48;1.80;;;1.50;;
10150;SDS011;5116;52.318;4.644;2023-06-14T05:24:17;2.43;;;1.30;;
10150;SDS011;5116;52.318;4.644;2023-06-14T05:26:48;1.53;;;1.43;;
10150;SDS011;5116;52.318;4.644;2023-06-14T05:29:16;1.87;;;1.67;;
10150;SDS011;5116;52.318;4.644;2023-06-14T05:31:43;1.40;;;1.20;;
10150;SDS011;5116;52.318;4.644;2023-06-14T05:34:11;1.60;;;1.43;;
10150;SDS011;5116;52.318;4.644;2023-06-14T05:36:38;1.77;;;1.50;;
10150;SDS011;5116;52.318;4.644;2023-06-14T05:39:06;2.30;;;1.77;;
10150;SDS011;5116;52.318;4.644;2023-06-14T05:41:34;1.63;;;1.53;;
10150;SDS011;5116;52.318;4.644;2023-06-14T05:44:02;1.77;;;1.67;;
10150;SDS011;5116;52.318;4.644;2023-06-14T05:46:29;2.05;;;1.65;;
10150;SDS011;5116;52.318;4.644;2023-06-14T05:48:57;1.50;;;1.40;;
10150;SDS011;5116;52.318;4.644;2023-06-14T05:51:24;1.47;;;1.33;;
10150;SDS011;5116;52.318;4.644;2023-06-14T05:53:53;1.60;;;1.50;;
10150;SDS011;5116;52.318;4.644;2023-06-14T05:56:21;1.63;;;1.50;;
10150;SDS011;5116;52.318;4.644;2023-06-14T05:58:49;1.67;;;1.50;;
10150;SDS011;5116;52.318;4.644;2023-06-14T06:01:17;1.67;;;1.50;;
10150;SDS011;5116;52.318;4.644;2023-06-14T06:03:44;1.40;;;1.30;;
10150;SDS011;5116;52.318;4.644;2023-06-14T06:06:13;1.50;;;1.40;;
10150;SDS011;5116;52.318;4.644;2023-06-14T06:08:40;1.47;;;1.37;;
10150;SDS011;5116;52.318;4.644;2023-06-14T06:11:08;1.40;;;1.30;;
10150;SDS011;5116;52.318;4.644;2023-06-14T06:13:38;2.77;;;1.40;;
10150;SDS011;5116;52.318;4.644;2023-06-14T06:16:07;2.33;;;1.50;;
10150;SDS011;5116;52.318;4.644;2023-06-14T06:18:34;2.37;;;1.50;;
10150;SDS011;5116;52.318;4.644;2023-06-14T06:21:03;2.47;;;2.00;;
10150;SDS011;5116;52.318;4.644;2023-06-14T06:23:31;1.60;;;1.50;;
10150;SDS011;5116;52.318;4.644;2023-06-14T06:25:59;2.17;;;1.63;;
10150;SDS011;5116;52.318;4.644;2023-06-14T06:28:26;1.80;;;1.60;;
10150;SDS011;5116;52.318;4.644;2023-06-14T06:30:54;1.77;;;1.43;;
10150;SDS011;5116;52.318;4.644;2023-06-14T06:33:22;2.33;;;1.67;;
10150;SDS011;5116;52.318;4.644;2023-06-14T06:35:50;2.03;;;1.83;;
10150;SDS011;5116;52.318;4.644;2023-06-14T06:38:17;1.93;;;1.50;;
10150;SDS011;5116;52.318;4.644;2023-06-14T06:40:45;2.20;;;1.63;;
10150;SDS011;5116;52.318;4.644;2023-06-14T06:43:12;1.53;;;1.30;;
10150;SDS011;5116;52.318;4.644;2023-06-14T06:45:45;1.73;;;1.63;;
10150;SDS011;5116;52.318;4.644;2023-06-14T06:48:12;1.87;;;1.67;;
10150;SDS011;5116;52.318;4.644;2023-06-14T06:50:40;1.70;;;1.60;;
10150;SDS011;5116;52.318;4.644;2023-06-14T06:53:08;2.53;;;1.60;;
10150;SDS011;5116;52.318;4.644;2023-06-14T06:55:36;1.80;;;1.60;;
10150;SDS011;5116;52.318;4.644;2023-06-14T06:58:03;2.10;;;1.90;;
10150;SDS011;5116;52.318;4.644;2023-06-14T07:00:32;1.90;;;1.70;;
10150;SDS011;5116;52.318;4.644;2023-06-14T07:03:00;2.30;;;1.50;;
10150;SDS011;5116;52.318;4.644;2023-06-14T07:05:28;1.60;;;1.50;;
10150;SDS011;5116;52.318;4.644;2023-06-14T07:07:55;1.60;;;1.50;;
10150;SDS011;5116;52.318;4.644;2023-06-14T07:10:23;1.60;;;1.50;;
10150;SDS011;5116;52.318;4.644;2023-06-14T07:12:52;1.60;;;1.50;;
10150;SDS011;5116;52.318;4.644;2023-06-14T07:15:19;1.87;;;1.70;;
10150;SDS011;5116;52.318;4.644;2023-06-14T07:17:47;2.17;;;1.77;;
10150;SDS011;5116;52.318;4.644;2023-06-14T07:20:15;2.00;;;1.80;;
10150;SDS011;5116;52.318;4.644;2023-06-14T07:22:43;1.77;;;1.67;;
10150;SDS011;5116;52.318;4.644;2023-06-14T07:25:11;2.10;;;1.90;;
10150;SDS011;5116;52.318;4.644;2023-06-14T07:27:42;2.00;;;1.80;;
10150;SDS011;5116;52.318;4.644;2023-06-14T07:30:10;2.60;;;1.60;;
10150;SDS011;5116;52.318;4.644;2023-06-14T07:32:37;2.20;;;1.77;;
10150;SDS011;5116;52.318;4.644;2023-06-14T07:35:05;1.73;;;1.60;;
10150;SDS011;5116;52.318;4.644;2023-06-14T07:37:33;1.60;;;1.50;;
10150;SDS011;5116;52.318;4.644;2023-06-14T07:40:01;2.40;;;2.03;;
10150;SDS011;5116;52.318;4.644;2023-06-14T07:42:34;1.70;;;1.60;;
10150;SDS011;5116;52.318;4.644;2023-06-14T07:45:05;2.07;;;1.70;;
10150;SDS011;5116;52.318;4.644;2023-06-14T07:47:33;2.40;;;2.00;;
10150;SDS011;5116;52.318;4.644;2023-06-14T07:50:01;1.83;;;1.70;;
10150;SDS011;5116;52.318;4.644;2023-06-14T07:52:34;2.03;;;1.70;;
10150;SDS011;5116;52.318;4.644;2023-06-14T07:55:01;2.23;;;2.03;;
10150;SDS011;5116;52.318;4.644;2023-06-14T07:57:29;3.17;;;2.07;;
10150;SDS011;5116;52.318;4.644;2023-06-14T07:59:57;1.63;;;1.50;;
10150;SDS011;5116;52.318;4.644;2023-06-14T08:02:24;1.80;;;1.70;;
10150;SDS011;5116;52.318;4.644;2023-06-14T08:04:52;1.87;;;1.77;;
10150;SDS011;5116;52.318;4.644;2023-06-14T08:07:20;2.90;;;1.90;;
10150;SDS011;5116;52.318;4.644;2023-06-14T08:09:48;2.10;;;1.87;;
10150;SDS011;5116;52.318;4.644;2023-06-14T08:12:15;3.53;;;2.00;;
10150;SDS011;5116;52.318;4.644;2023-06-14T08:14:43;3.40;;;1.93;;
10150;SDS011;5116;52.318;4.644;2023-06-14T08:17:11;3.10;;;2.00;;
10150;SDS011;5116;52.318;4.644;2023-06-14T08:19:38;1.60;;;1.50;;
10150;SDS011;5116;52.318;4.644;2023-06-14T08:22:07;2.40;;;2.10;;
10150;SDS011;5116;52.318;4.644;2023-06-14T08:24:40;2.07;;;1.87;;
10150;SDS011;5116;52.318;4.644;2023-06-14T08:27:08;2.53;;;1.97;;
10150;SDS011;5116;52.318;4.644;2023-06-14T08:29:35;1.93;;;1.70;;
10150;SDS011;5116;52.318;4.644;2023-06-14T08:32:04;3.73;;;1.80;;
10150;SDS011;5116;52.318;4.644;2023-06-14T08:34:32;1.77;;;1.67;;
10150;SDS011;5116;52.318;4.644;2023-06-14T08:37:00;1.83;;;1.40;;
10150;SDS011;5116;52.318;4.644;2023-06-14T08:39:27;1.57;;;1.30;;
10150;SDS011;5116;52.318;4.644;2023-06-14T08:41:55;4.07;;;2.10;;
10150;SDS011;5116;52.318;4.644;2023-06-14T08:44:23;2.03;;;1.80;;
10150;SDS011;5116;52.318;4.644;2023-06-14T08:46:51;2.97;;;1.70;;
10150;SDS011;5116;52.318;4.644;2023-06-14T08:49:19;2.00;;;1.90;;
10150;SDS011;5116;52.318;4.644;2023-06-14T08:51:48;1.70;;;1.60;;
10150;SDS011;5116;52.318;4.644;2023-06-14T08:54:18;2.67;;;1.40;;
10150;SDS011;5116;52.318;4.644;2023-06-14T08:56:47;2.90;;;1.80;;
10150;SDS011;5116;52.318;4.644;2023-06-14T08:59:15;1.60;;;1.50;;
10150;SDS011;5116;52.318;4.644;2023-06-14T09:01:44;2.97;;;1.63;;
10150;SDS011;5116;52.318;4.644;2023-06-14T09:04:32;1.50;;;1.40;;
10150;SDS011;5116;52.318;4.644;2023-06-14T09:07:00;2.83;;;1.60;;
10150;SDS011;5116;52.318;4.644;2023-06-14T09:09:27;1.63;;;1.53;;
10150;SDS011;5116;52.318;4.644;2023-06-14T09:11:54;1.90;;;1.70;;
10150;SDS011;5116;52.318;4.644;2023-06-14T09:14:23;1.73;;;1.50;;
10150;SDS011;5116;52.318;4.644;2023-06-14T09:16:54;1.70;;;1.60;;
10150;SDS011;5116;52.318;4.644;2023-06-14T09:19:25;1.80;;;1.70;;
10150;SDS011;5116;52.318;4.644;2023-06-14T09:21:53;2.17;;;1.80;;
10150;SDS011;5116;52.318;4.644;2023-06-14T09:24:23;1.70;;;1.60;;
10150;SDS011;5116;52.318;4.644;2023-06-14T09:26:53;1.53;;;1.23;;
10150;SDS011;5116;52.318;4.644;2023-06-14T09:29:21;2.60;;;1.57;;
10150;SDS011;5116;52.318;4.644;2023-06-14T09:31:48;2.60;;;1.77;;
10150;SDS011;5116;52.318;4.644;2023-06-14T09:34:16;1.73;;;1.60;;
10150;SDS011;5116;52.318;4.644;2023-06-14T09:36:46;1.53;;;1.40;;
10150;SDS011;5116;52.318;4.644;2023-06-14T09:39:16;1.50;;;1.40;;
10150;SDS011;5116;52.318;4.644;2023-06-14T09:41:44;1.80;;;1.70;;
10150;SDS011;5116;52.318;4.644;2023-06-14T09:44:12;3.47;;;1.70;;
10150;SDS011;5116;52.318;4.644;2023-06-14T09:46:52;1.30;;;1.20;;
10150;SDS011;5116;52.318;4.644;2023-06-14T09:49:21;1.70;;;1.40;;
10150;SDS011;5116;52.318;4.644;2023-06-14T09:51:50;1.83;;;1.30;;
10150;SDS011;5116;52.318;4.644;2023-06-14T09:54:20;2.20;;;1.57;;
10150;SDS011;5116;52.318;4.644;2023-06-14T09:56:48;2.13;;;1.40;;
10150;SDS011;5116;52.318;4.644;2023-06-14T09:59:22;1.30;;;1.20;;
10150;SDS011;5116;52.318;4.644;2023-06-14T10:01:57;3.13;;;1.50;;
10150;SDS011;5116;52.318;4.644;2023-06-14T10:04:27;1.63;;;1.43;;
10150;SDS011;5116;52.318;4.644;2023-06-14T10:06:54;2.23;;;1.67;;
10150;SDS011;5116;52.318;4.644;2023-06-14T10:09:25;1.47;;;1.37;;
10150;SDS011;5116;52.318;4.644;2023-06-14T10:11:57;1.97;;;1.70;;
10150;SDS011;5116;52.318;4.644;2023-06-14T10:14:25;1.17;;;1.13;;
10150;SDS011;5116;52.318;4.644;2023-06-14T10:16:56;1.40;;;1.30;;
10150;SDS011;5116;52.318;4.644;2023-06-14T10:19:34;1.47;;;1.37;;
10150;SDS011;5116;52.318;4.644;2023-06-14T10:22:06;2.27;;;1.70;;
10150;SDS011;5116;52.318;4.644;2023-06-14T10:24:38;1.87;;;1.60;;
10150;SDS011;5116;52.318;4.644;2023-06-14T10:27:08;1.80;;;1.70;;
10150;SDS011;5116;52.318;4.644;2023-06-14T10:32:24;1.83;;;1.30;;
10150;SDS011;5116;52.318;4.644;2023-06-14T10:34:55;1.67;;;1.30;;
10150;SDS011;5116;52.318;4.644;2023-06-14T10:37:23;1.43;;;1.33;;
10150;SDS011;5116;52.318;4.644;2023-06-14T10:39:51;1.60;;;1.50;;
10150;SDS011;5116;52.318;4.644;2023-06-14T10:42:20;1.60;;;1.50;;
10150;SDS011;5116;52.318;4.644;2023-06-14T10:44:50;2.87;;;1.30;;
10150;SDS011;5116;52.318;4.644;2023-06-14T10:47:34;2.40;;;1.50;;
10150;SDS011;5116;52.318;4.644;2023-06-14T10:50:05;1.53;;;1.43;;
10150;SDS011;5116;52.318;4.644;2023-06-14T10:52:34;1.67;;;1.43;;
10150;SDS011;5116;52.318;4.644;2023-06-14T10:55:06;2.23;;;1.60;;
10150;SDS011;5116;52.318;4.644;2023-06-14T10:57:40;1.40;;;1.30;;
10150;SDS011;5116;52.318;4.644;2023-06-14T11:00:18;1.20;;;1.10;;
10150;SDS011;5116;52.318;4.644;2023-06-14T11:11:09;1.63;;;1.10;;
10150;SDS011;5116;52.318;4.644;2023-06-14T11:13:38;1.30;;;1.20;;
10150;SDS011;5116;52.318;4.644;2023-06-14T11:16:12;1.40;;;1.30;;
10150;SDS011;5116;52.318;4.644;2023-06-14T11:18:40;1.70;;;1.47;;
10150;SDS011;5116;52.318;4.644;2023-06-14T11:21:08;1.20;;;1.20;;
10150;SDS011;5116;52.318;4.644;2023-06-14T11:23:36;3.10;;;1.47;;
10150;SDS011;5116;52.318;4.644;2023-06-14T11:26:04;2.47;;;1.47;;
10150;SDS011;5116;52.318;4.644;2023-06-14T11:31:05;1.23;;;1.13;;
10150;SDS011;5116;52.318;4.644;2023-06-14T11:33:32;1.30;;;1.20;;
10150;SDS011;5116;52.318;4.644;2023-06-14T11:36:03;0.93;;;0.93;;
10150;SDS011;5116;52.318;4.644;2023-06-14T11:38:36;1.40;;;1.30;;
10150;SDS011;5116;52.318;4.644;2023-06-14T11:41:04;1.43;;;1.33;;
10150;SDS011;5116;52.318;4.644;2023-06-14T11:43:31;2.83;;;1.30;;
10150;SDS011;5116;52.318;4.644;2023-06-14T11:46:01;1.97;;;1.33;;
10150;SDS011;5116;52.318;4.644;2023-06-14T11:48:38;1.53;;;1.43;;
10150;SDS011;5116;52.318;4.644;2023-06-14T11:51:06;1.60;;;1.50;;
10150;SDS011;5116;52.318;4.644;2023-06-14T11:53:34;1.83;;;1.20;;
10150;SDS011;5116;52.318;4.644;2023-06-14T11:56:01;1.40;;;1.30;;
10150;SDS011;5116;52.318;4.644;2023-06-14T11:58:29;1.40;;;1.30;;
10150;SDS011;5116;52.318;4.644;2023-06-14T12:00:57;1.33;;;1.23;;
10150;SDS011;5116;52.318;4.644;2023-06-14T12:03:25;1.50;;;1.30;;
10150;SDS011;5116;52.318;4.644;2023-06-14T12:06:02;0.90;;;0.90;;
10150;SDS011;5116;52.318;4.644;2023-06-14T12:08:33;1.40;;;1.30;;
10150;SDS011;5116;52.318;4.644;2023-06-14T12:11:06;1.53;;;1.33;;
10150;SDS011;5116;52.318;4.644;2023-06-14T12:13:34;1.23;;;1.13;;
10150;SDS011;5116;52.318;4.644;2023-06-14T12:16:07;1.27;;;1.13;;
10150;SDS011;5116;52.318;4.644;2023-06-14T12:18:35;1.30;;;1.20;;
10150;SDS011;5116;52.318;4.644;2023-06-14T12:21:07;1.40;;;1.30;;
10150;SDS011;5116;52.318;4.644;2023-06-14T12:23:45;1.30;;;1.20;;
10150;SDS011;5116;52.318;4.644;2023-06-14T12:26:14;2.17;;;1.40;;
10150;SDS011;5116;52.318;4.644;2023-06-14T12:28:42;1.90;;;1.10;;
10150;SDS011;5116;52.318;4.644;2023-06-14T12:31:11;2.13;;;1.20;;
10150;SDS011;5116;52.318;4.644;2023-06-14T12:33:39;1.10;;;1.00;;
10150;SDS011;5116;52.318;4.644;2023-06-14T12:36:08;1.30;;;1.20;;
10150;SDS011;5116;52.318;4.644;2023-06-14T12:38:37;1.27;;;1.17;;
10150;SDS011;5116;52.318;4.644;2023-06-14T12:41:05;1.57;;;1.37;;
10150;SDS011;5116;52.318;4.644;2023-06-14T12:43:34;1.23;;;1.13;;
10150;SDS011;5116;52.318;4.644;2023-06-14T12:46:01;1.57;;;1.40;;
10150;SDS011;5116;52.318;4.644;2023-06-14T12:48:29;2.27;;;1.27;;
10150;SDS011;5116;52.318;4.644;2023-06-14T12:50:57;1.47;;;1.37;;
10150;SDS011;5116;52.318;4.644;2023-06-14T12:53:25;1.30;;;1.20;;
10150;SDS011;5116;52.318;4.644;2023-06-14T12:55:52;1.40;;;1.30;;
10150;SDS011;5116;52.318;4.644;2023-06-14T12:58:20;1.27;;;1.17;;
10150;SDS011;5116;52.318;4.644;2023-06-14T13:00:47;1.23;;;1.13;;
10150;SDS011;5116;52.318;4.644;2023-06-14T13:03:15;1.60;;;1.33;;
10150;SDS011;5116;52.318;4.644;2023-06-14T13:05:42;1.27;;;1.17;;
10150;SDS011;5116;52.318;4.644;2023-06-14T13:08:10;1.57;;;1.30;;
10150;SDS011;5116;52.318;4.644;2023-06-14T13:10:37;1.23;;;1.13;;
10150;SDS011;5116;52.318;4.644;2023-06-14T13:13:05;1.70;;;1.20;;
10150;SDS011;5116;52.318;4.644;2023-06-14T13:15:34;1.30;;;1.20;;
10150;SDS011;5116;52.318;4.644;2023-06-14T13:18:01;1.53;;;1.20;;
10150;SDS011;5116;52.318;4.644;2023-06-14T13:20:29;1.50;;;1.40;;
10150;SDS011;5116;52.318;4.644;2023-06-14T13:22:57;1.30;;;1.17;;
10150;SDS011;5116;52.318;4.644;2023-06-14T13:25:25;1.10;;;1.00;;
10150;SDS011;5116;52.318;4.644;2023-06-14T13:27:52;1.20;;;1.10;;
10150;SDS011;5116;52.318;4.644;2023-06-14T13:30:20;1.30;;;1.20;;
10150;SDS011;5116;52.318;4.644;2023-06-14T13:32:47;1.03;;;1.03;;
10150;SDS011;5116;52.318;4.644;2023-06-14T13:35:16;1.30;;;1.20;;
10150;SDS011;5116;52.318;4.644;2023-06-14T13:37:44;1.30;;;1.20;;
10150;SDS011;5116;52.318;4.644;2023-06-14T13:40:12;1.40;;;1.30;;
10150;SDS011;5116;52.318;4.644;2023-06-14T13:42:40;1.30;;;1.20;;
10150;SDS011;5116;52.318;4.644;2023-06-14T13:45:08;1.67;;;1.30;;
10150;SDS011;5116;52.318;4.644;2023-06-14T13:47:36;1.10;;;1.00;;
10150;SDS011;5116;52.318;4.644;2023-06-14T13:50:05;1.03;;;0.90;;
10150;SDS011;5116;52.318;4.644;2023-06-14T13:52:33;1.23;;;1.13;;
10150;SDS011;5116;52.318;4.644;2023-06-14T13:55:01;1.30;;;1.20;;
10150;SDS011;5116;52.318;4.644;2023-06-14T13:57:29;1.40;;;1.20;;
10150;SDS011;5116;52.318;4.644;2023-06-14T13:59:57;1.57;;;1.20;;
10150;SDS011;5116;52.318;4.644;2023-06-14T14:02:37;1.27;;;1.10;;
10150;SDS011;5116;52.318;4.644;2023-06-14T14:05:06;1.57;;;1.10;;
10150;SDS011;5116;52.318;4.644;2023-06-14T14:07:34;1.30;;;1.20;;
10150;SDS011;5116;52.318;4.644;2023-06-14T14:10:03;1.07;;;1.03;;
10150;SDS011;5116;52.318;4.644;2023-06-14T14:12:30;1.33;;;1.23;;
10150;SDS011;5116;52.318;4.644;2023-06-14T14:14:58;1.73;;;1.30;;
10150;SDS011;5116;52.318;4.644;2023-06-14T14:17:26;1.17;;;1.10;;
10150;SDS011;5116;52.318;4.644;2023-06-14T14:19:53;1.10;;;1.00;;
10150;SDS011;5116;52.318;4.644;2023-06-14T14:22:21;1.20;;;1.10;;
10150;SDS011;5116;52.318;4.644;2023-06-14T14:24:49;1.47;;;1.30;;
10150;SDS011;5116;52.318;4.644;2023-06-14T14:27:16;2.33;;;1.00;;
10150;SDS011;5116;52.318;4.644;2023-06-14T14:29:44;1.23;;;1.10;;
10150;SDS011;5116;52.318;4.644;2023-06-14T14:32:11;1.40;;;1.20;;
10150;SDS011;5116;52.318;4.644;2023-06-14T14:34:40;1.90;;;1.27;;
10150;SDS011;5116;52.318;4.644;2023-06-14T14:37:08;1.23;;;1.10;;
10150;SDS011;5116;52.318;4.644;2023-06-14T14:39:36;1.33;;;1.17;;
10150;SDS011;5116;52.318;4.644;2023-06-14T14:42:04;1.30;;;1.20;;
10150;SDS011;5116;52.318;4.644;2023-06-14T14:44:33;1.27;;;1.17;;
10150;SDS011;5116;52.318;4.644;2023-06-14T14:47:01;1.30;;;1.20;;
10150;SDS011;5116;52.318;4.644;2023-06-14T14:49:30;1.10;;;1.00;;
10150;SDS011;5116;52.318;4.644;2023-06-14T14:51:57;1.63;;;1.30;;
10150;SDS011;5116;52.318;4.644;2023-06-14T14:54:40;1.53;;;1.27;;
10150;SDS011;5116;52.318;4.644;2023-06-14T14:57:07;2.20;;;1.47;;
10150;SDS011;5116;52.318;4.644;2023-06-14T14:59:35;1.50;;;1.30;;
10150;SDS011;5116;52.318;4.644;2023-06-14T15:02:02;1.30;;;1.20;;
10150;SDS011;5116;52.318;4.644;2023-06-14T15:04:30;1.37;;;1.27;;
10150;SDS011;5116;52.318;4.644;2023-06-14T15:06:57;1.10;;;1.07;;
10150;SDS011;5116;52.318;4.644;2023-06-14T15:09:25;1.60;;;1.50;;
10150;SDS011;5116;52.318;4.644;2023-06-14T15:11:52;1.33;;;1.20;;
10150;SDS011;5116;52.318;4.644;2023-06-14T15:14:19;1.30;;;1.20;;
10150;SDS011;5116;52.318;4.644;2023-06-14T15:16:47;1.30;;;1.20;;
10150;SDS011;5116;52.318;4.644;2023-06-14T15:19:14;1.40;;;1.30;;
10150;SDS011;5116;52.318;4.644;2023-06-14T15:21:42;1.40;;;1.30;;
10150;SDS011;5116;52.318;4.644;2023-06-14T15:24:09;1.73;;;1.63;;
10150;SDS011;5116;52.318;4.644;2023-06-14T15:26:37;1.40;;;1.30;;